Time;durP1;ratioP1;P1;durP2;ratioP2;P2;SDS_P1;SDS_P2;PMS_P1;PMS_P2;Temp;Humidity;BMP_temperature;BMP_pressure;BME280_temperature;BME280_humidity;BME280_pressure;Samples;Min_cycle;Max_cycle;Signal;HPM_P1;HPM_P2
2022/03/12 00:01:06;;;;;;;1999.90;999.90;;;;;;;-1.98;29.61;101954.81;5018949;27;97645;-69
2022/03/12 00:03:34;;;;;;;1999.90;999.90;;;;;;;-2.00;29.57;101942.41;4999330;28;97222;-69
2022/03/12 00:06:05;;;;;;;1999.90;999.90;;;;;;;-2.02;29.61;101942.28;5015786;27;96787;-70
2022/03/12 00:08:40;;;;;;;1999.90;999.90;;;;;;;-2.04;29.84;101945.53;5012795;28;97548;-70
2022/03/12 00:11:09;;;;;;;1999.90;999.90;;;;;;;-2.05;29.54;101941.06;5014392;28;97706;-70
2022/03/12 00:13:38;;;;;;;1999.90;999.90;;;;;;;-2.07;29.82;101950.47;5021569;27;97553;-70
2022/03/12 00:16:13;;;;;;;1999.90;999.90;;;;;;;-2.09;30.26;101942.50;4994471;28;99735;-71
2022/03/12 00:18:42;;;;;;;1999.90;999.90;;;;;;;-2.11;30.35;101944.03;5020364;27;97708;-70
2022/03/12 00:21:13;;;;;;;1999.90;999.90;;;;;;;-2.11;29.91;101932.72;5003508;28;98815;-70
2022/03/12 00:23:49;;;;;;;1999.90;999.90;;;;;;;-2.13;29.72;101927.38;5022516;27;97733;-70
2022/03/12 00:26:17;;;;;;;1999.90;999.90;;;;;;;-2.15;29.95;101936.75;5007860;27;97132;-70
2022/03/12 00:28:46;;;;;;;1999.90;999.90;;;;;;;-2.17;30.09;101930.47;5013858;27;98625;-70
2022/03/12 00:31:14;;;;;;;1999.90;999.90;;;;;;;-2.18;29.68;101931.19;5021923;28;99232;-69
2022/03/12 00:33:42;;;;;;;1999.90;999.90;;;;;;;-2.20;30.32;101931.84;5022275;27;97076;-70
2022/03/12 00:36:11;;;;;;;1999.90;999.90;;;;;;;-2.21;30.46;101930.94;5016964;28;97532;-70
2022/03/12 00:38:39;;;;;;;1999.90;999.90;;;;;;;-2.24;29.76;101925.47;4985251;28;100657;-70
2022/03/12 00:41:07;;;;;;;1999.90;999.90;;;;;;;-2.28;30.22;101938.06;5019175;28;96837;-69
2022/03/12 00:43:35;;;;;;;1999.90;999.90;;;;;;;-2.30;30.26;101939.59;4996283;28;98319;-70
2022/03/12 00:46:05;;;;;;;1999.90;999.90;;;;;;;-2.34;30.53;101938.41;5015581;28;97552;-70
2022/03/12 00:48:34;;;;;;;1999.90;999.90;;;;;;;-2.35;30.29;101931.41;5013402;27;97760;-70
2022/03/12 00:51:06;;;;;;;1999.90;999.90;;;;;;;-2.36;30.28;101929.53;5019718;27;99080;-67
2022/03/12 00:53:34;;;;;;;1999.90;999.90;;;;;;;-2.36;30.00;101928.66;5019884;27;97367;-70
2022/03/12 00:56:02;;;;;;;1999.90;999.90;;;;;;;-2.38;29.87;101925.00;5013739;28;97859;-70
2022/03/12 00:58:30;;;;;;;1999.90;999.90;;;;;;;-2.43;30.75;101921.94;5020713;27;98125;-71
2022/03/12 01:00:58;;;;;;;1999.90;999.90;;;;;;;-2.43;30.12;101931.44;5018334;28;97548;-70
2022/03/12 01:03:27;;;;;;;1999.90;999.90;;;;;;;-2.46;30.77;101926.91;5019886;27;98181;-71
2022/03/12 01:05:58;;;;;;;1999.90;999.90;;;;;;;-2.48;30.74;101928.44;5016766;27;97755;-70
2022/03/12 01:08:27;;;;;;;1999.90;999.90;;;;;;;-2.50;30.60;101927.38;5031270;27;99063;-70
2022/03/12 01:10:58;;;;;;;1999.90;999.90;;;;;;;-2.54;30.25;101914.84;5014484;28;97924;-70
2022/03/12 01:13:25;;;;;;;1999.90;999.90;;;;;;;-2.55;30.70;101926.06;5012614;27;98346;-71
2022/03/12 01:15:53;;;;;;;1999.90;999.90;;;;;;;-2.55;30.40;101926.06;5021068;27;99627;-71
2022/03/12 01:18:22;;;;;;;1999.90;999.90;;;;;;;-2.52;30.04;101920.19;4977312;28;98624;-71
2022/03/12 01:20:52;;;;;;;1999.90;999.90;;;;;;;-2.57;30.76;101922.41;5018354;28;99316;-70
2022/03/12 01:23:23;;;;;;;1999.90;999.90;;;;;;;-2.58;30.33;101928.34;5000281;27;96880;-70
2022/03/12 01:25:52;;;;;;;1999.90;999.90;;;;;;;-2.58;31.00;101915.34;5006971;27;97287;-70
2022/03/12 01:28:21;;;;;;;1999.90;999.90;;;;;;;-2.56;30.59;101936.34;5000163;28;99659;-70
2022/03/12 01:30:54;;;;;;;1999.90;999.90;;;;;;;-2.59;30.80;101923.94;5009823;28;97760;-70
2022/03/12 01:33:22;;;;;;;1999.90;999.90;;;;;;;-2.58;30.61;101924.88;5000535;28;97243;-70
2022/03/12 01:35:50;;;;;;;1999.90;999.90;;;;;;;-2.58;30.57;101925.75;5011705;27;96919;-70
2022/03/12 01:38:30;;;;;;;1999.90;999.90;;;;;;;-2.60;30.85;101916.88;5015350;27;97619;-69
2022/03/12 01:41:02;;;;;;;1999.90;999.90;;;;;;;-2.56;30.47;101918.09;5016654;27;99210;-70
2022/03/12 01:43:32;;;;;;;1999.90;999.90;;;;;;;-2.58;30.90;101915.34;5011788;28;98197;-70
2022/03/12 01:46:01;;;;;;;1999.90;999.90;;;;;;;-2.58;30.25;101910.13;5001114;28;97204;-70
2022/03/12 01:48:30;;;;;;;1999.90;999.90;;;;;;;-2.60;30.58;101908.19;4997958;27;99692;-70
2022/03/12 01:51:00;;;;;;;1999.90;999.90;;;;;;;-2.63;30.50;101907.88;5006348;27;97690;-70
2022/03/12 01:53:29;;;;;;;1999.90;999.90;;;;;;;-2.67;30.84;101909.28;4996289;27;98639;-69
2022/03/12 01:55:57;;;;;;;1999.90;999.90;;;;;;;-2.70;30.96;101915.91;5018803;28;96871;-70
2022/03/12 01:58:25;;;;;;;1999.90;999.90;;;;;;;-2.72;30.66;101920.97;5013455;27;99623;-70
2022/03/12 02:00:57;;;;;;;1999.90;999.90;;;;;;;-2.72;30.64;101920.06;4994376;28;98241;-70
2022/03/12 02:03:28;;;;;;;1999.90;999.90;;;;;;;-2.72;30.38;101907.97;5019492;27;96960;-70
2022/03/12 02:05:57;;;;;;;1999.90;999.90;;;;;;;-2.74;30.57;101922.53;4998830;28;98295;-70
2022/03/12 02:08:26;;;;;;;1999.90;999.90;;;;;;;-2.73;30.37;101919.16;4999421;28;98716;-71
2022/03/12 02:10:57;;;;;;;1999.90;999.90;;;;;;;-2.74;30.80;101911.19;5019295;27;97624;-70
2022/03/12 02:13:26;;;;;;;1999.90;999.90;;;;;;;-2.75;30.82;101915.50;5018637;27;97255;-70
2022/03/12 02:16:05;;;;;;;1999.90;999.90;;;;;;;-2.78;30.22;101917.81;5006317;27;97928;-69
2022/03/12 02:18:34;;;;;;;1999.90;999.90;;;;;;;-2.77;30.49;101911.84;5016327;28;99125;-70
2022/03/12 02:21:04;;;;;;;1999.90;999.90;;;;;;;-2.79;30.66;101913.38;5014347;27;100816;-71
2022/03/12 02:23:46;;;;;;;1999.90;999.90;;;;;;;-2.85;29.92;101912.81;5011277;27;97076;-71
2022/03/12 02:26:14;;;;;;;1999.90;999.90;;;;;;;-2.84;30.56;101910.34;5017904;28;97082;-70
2022/03/12 02:28:41;;;;;;;1999.90;999.90;;;;;;;-2.84;30.51;101914.66;5006338;28;97803;-70
2022/03/12 02:31:09;;;;;;;1999.90;999.90;;;;;;;-2.82;30.60;101915.72;5002498;27;98742;-70
2022/03/12 02:33:37;;;;;;;1999.90;999.90;;;;;;;-2.82;30.45;101913.13;5013699;27;97592;-71
2022/03/12 02:36:06;;;;;;;1999.90;999.90;;;;;;;-2.82;30.19;101913.13;5008834;27;97554;-71
2022/03/12 02:38:35;;;;;;;1999.90;999.90;;;;;;;-2.83;30.80;101911.25;5013436;27;99953;-70
2022/03/12 02:41:10;;;;;;;1999.90;999.90;;;;;;;-2.83;30.46;101906.06;5015002;27;98532;-71
2022/03/12 02:43:44;;;;;;;1999.90;999.90;;;;;;;-2.84;30.30;101917.25;5013931;27;96840;-71
2022/03/12 02:46:13;;;;;;;1999.90;999.90;;;;;;;-2.84;30.32;101914.66;5010935;27;97850;-71
2022/03/12 02:48:43;;;;;;;1999.90;999.90;;;;;;;-2.85;30.27;101911.13;4998494;28;99841;-70
2022/03/12 02:51:11;;;;;;;1999.90;999.90;;;;;;;-2.84;30.63;101909.44;5018946;28;98809;-71
2022/03/12 02:53:39;;;;;;;1999.90;999.90;;;;;;;-2.87;30.15;101907.47;4999822;28;97117;-69
2022/03/12 02:56:08;;;;;;;1999.90;999.90;;;;;;;-2.88;30.27;101902.13;5015539;27;97632;-69
2022/03/12 02:58:36;;;;;;;1999.90;999.90;;;;;;;-2.89;30.40;101915.91;5019175;27;98726;-69
2022/03/12 03:01:05;;;;;;;1999.90;999.90;;;;;;;-2.91;30.42;101910.56;4997962;27;97019;-68
2022/03/12 03:03:35;;;;;;;1999.90;999.90;;;;;;;-2.91;30.59;101904.47;5036371;27;99055;-69
2022/03/12 03:06:03;;;;;;;1999.90;999.90;;;;;;;-2.94;30.50;101909.34;5007468;27;97253;-69
2022/03/12 03:08:30;;;;;;;1999.90;999.90;;;;;;;-2.97;30.11;101911.69;5021556;28;97859;-70
2022/03/12 03:10:59;;;;;;;1999.90;999.90;;;;;;;-2.97;30.65;101916.91;4999070;28;97745;-70
2022/03/12 03:13:44;;;;;;;1999.90;999.90;;;;;;;-2.98;29.95;101928.06;5003447;28;97633;-69
2022/03/12 03:16:18;;;;;;;1999.90;999.90;;;;;;;-2.94;30.62;101927.59;5008248;28;97262;-70
2022/03/12 03:18:51;;;;;;;1999.90;999.90;;;;;;;-2.95;30.05;101926.66;5004568;28;97662;-70
2022/03/12 03:21:20;;;;;;;1999.90;999.90;;;;;;;-2.97;30.33;101922.09;5016042;28;97798;-70
2022/03/12 03:23:48;;;;;;;1999.90;999.90;;;;;;;-2.99;30.85;101913.22;5003212;28;97766;-70
2022/03/12 03:26:21;;;;;;;1999.90;999.90;;;;;;;-3.01;30.34;101920.91;5018512;28;97987;-69
2022/03/12 03:28:50;;;;;;;1999.90;999.90;;;;;;;-2.99;30.53;101934.06;5021808;28;98837;-69
2022/03/12 03:31:18;;;;;;;1999.90;999.90;;;;;;;-3.00;30.31;101932.22;5021205;27;100566;-69
2022/03/12 03:33:46;;;;;;;1999.90;999.90;;;;;;;-3.01;30.55;101933.00;5009149;27;96978;-69
2022/03/12 03:36:13;;;;;;;1999.90;999.90;;;;;;;-3.01;30.59;101930.41;5014274;27;97075;-70
2022/03/12 03:38:41;;;;;;;1999.90;999.90;;;;;;;-3.02;30.68;101931.19;5017908;27;98038;-70
2022/03/12 03:41:09;;;;;;;1999.90;999.90;;;;;;;-3.03;30.73;101937.16;5009492;27;100045;-70
2022/03/12 03:43:36;;;;;;;1999.90;999.90;;;;;;;-3.05;30.18;101931.81;5014883;28;97564;-69
2022/03/12 03:46:05;;;;;;;1999.90;999.90;;;;;;;-3.07;30.42;101932.41;5021310;27;98266;-69
2022/03/12 03:48:37;;;;;;;1999.90;999.90;;;;;;;-3.11;30.20;101927.72;5007185;28;98284;-70
2022/03/12 03:51:05;;;;;;;1999.90;999.90;;;;;;;-3.12;30.54;101915.47;5026699;27;98976;-69
2022/03/12 03:53:33;;;;;;;1999.90;999.90;;;;;;;-3.14;30.79;101923.13;5022213;27;97278;-69
2022/03/12 03:56:01;;;;;;;1999.90;999.90;;;;;;;-3.16;30.31;101926.34;5018143;27;96947;-69
2022/03/12 03:58:30;;;;;;;1999.90;999.90;;;;;;;-3.17;30.59;101929.75;5022172;27;97648;-69
2022/03/12 04:01:00;;;;;;;1999.90;999.90;;;;;;;-3.20;30.51;101921.66;5016345;28;97134;-70
2022/03/12 04:03:32;;;;;;;1999.90;999.90;;;;;;;-3.22;30.96;101928.41;5011261;27;97673;-70
2022/03/12 04:06:02;;;;;;;1999.90;999.90;;;;;;;-3.24;31.06;101929.94;5011366;27;98569;-70
2022/03/12 04:08:31;;;;;;;1999.90;999.90;;;;;;;-3.26;30.59;101926.28;5003280;28;99212;-69
2022/03/12 04:11:04;;;;;;;1999.90;999.90;;;;;;;-3.25;30.59;101929.03;5019204;27;98081;-70
2022/03/12 04:13:33;;;;;;;1999.90;999.90;;;;;;;-3.26;31.11;101922.00;5010444;27;97356;-70
2022/03/12 04:16:02;;;;;;;1999.90;999.90;;;;;;;-3.28;30.52;101920.00;5023168;27;96737;-69
2022/03/12 04:18:32;;;;;;;1999.90;999.90;;;;;;;-3.32;30.57;101928.28;5019208;27;100590;-69
2022/03/12 04:21:00;;;;;;;1999.90;999.90;;;;;;;-3.37;30.92;101924.34;5022639;27;97557;-69
2022/03/12 04:23:28;;;;;;;1999.90;999.90;;;;;;;-3.42;30.66;101923.91;5020816;27;96809;-70
2022/03/12 04:25:57;;;;;;;1999.90;999.90;;;;;;;-3.46;30.70;101927.00;5018942;27;97978;-69
2022/03/12 04:28:27;;;;;;;1999.90;999.90;;;;;;;-3.46;30.92;101913.06;5011312;28;97080;-70
2022/03/12 04:30:55;;;;;;;1999.90;999.90;;;;;;;-3.52;30.97;101920.28;4984687;27;100639;-69
2022/03/12 04:33:23;;;;;;;1999.90;999.90;;;;;;;-3.54;31.08;101916.63;5019277;27;97014;-69
2022/03/12 04:35:52;;;;;;;1999.90;999.90;;;;;;;-3.62;30.77;101915.00;5021936;28;97524;-69
2022/03/12 04:38:19;;;;;;;1999.90;999.90;;;;;;;-3.66;30.99;101910.28;5006295;27;100769;-70
2022/03/12 04:40:47;;;;;;;1999.90;999.90;;;;;;;-3.71;30.84;101912.41;5002619;28;99237;-69
2022/03/12 04:43:19;;;;;;;1999.90;999.90;;;;;;;-3.74;30.91;101916.41;4999600;28;96922;-70
2022/03/12 04:45:49;;;;;;;1999.90;999.90;;;;;;;-3.79;31.14;101912.47;5003620;28;97602;-69
2022/03/12 04:48:20;;;;;;;1999.90;999.90;;;;;;;-3.86;31.23;101904.06;5003492;28;99063;-70
2022/03/12 04:50:47;;;;;;;1999.90;999.90;;;;;;;-3.91;31.22;101901.78;5001889;28;98502;-70
2022/03/12 04:53:17;;;;;;;1999.90;999.90;;;;;;;-3.98;31.19;101905.50;5019559;27;99157;-69
2022/03/12 04:55:45;;;;;;;1999.90;999.90;;;;;;;-3.99;31.34;101907.94;5019228;28;97203;-70
2022/03/12 04:58:13;;;;;;;1999.90;999.90;;;;;;;-3.98;31.45;101909.78;5019522;27;99198;-70
2022/03/12 05:00:42;;;;;;;1999.90;999.90;;;;;;;-3.98;31.25;101899.38;5021493;28;97927;-69
2022/03/12 05:03:11;;;;;;;1999.90;999.90;;;;;;;-4.01;31.32;101900.00;4999311;27;97363;-69
2022/03/12 05:05:41;;;;;;;1999.90;999.90;;;;;;;-4.02;31.44;101908.56;4989509;28;96857;-69
2022/03/12 05:08:10;;;;;;;1999.90;999.90;;;;;;;-4.04;31.61;101903.97;5010440;27;99731;-69
2022/03/12 05:10:39;;;;;;;1999.90;999.90;;;;;;;-4.06;31.53;101906.41;5012963;28;97710;-70
2022/03/12 05:13:06;;;;;;;1999.90;999.90;;;;;;;-4.06;31.59;101911.63;5017705;28;96708;-70
2022/03/12 05:15:38;;;;;;;1999.90;999.90;;;;;;;-4.07;31.53;101912.41;5019583;27;97906;-70
2022/03/12 05:18:07;;;;;;;1999.90;999.90;;;;;;;-4.11;31.38;101910.28;5016857;27;97344;-69
2022/03/12 05:20:37;;;;;;;1999.90;999.90;;;;;;;-4.14;31.17;101909.06;5018771;27;97813;-69
2022/03/12 05:23:07;;;;;;;1999.90;999.90;;;;;;;-4.15;31.69;101912.44;5013403;28;98309;-69
2022/03/12 05:25:35;;;;;;;1999.90;999.90;;;;;;;-4.18;31.62;101904.31;5017602;27;97773;-69
2022/03/12 05:28:05;;;;;;;1999.90;999.90;;;;;;;-4.21;31.64;101915.34;5012364;27;98702;-70
2022/03/12 05:30:32;;;;;;;1999.90;999.90;;;;;;;-4.24;31.77;101915.03;5004539;27;97607;-69
2022/03/12 05:33:00;;;;;;;1999.90;999.90;;;;;;;-4.25;31.55;101928.81;5000052;27;99054;-70
2022/03/12 05:35:28;;;;;;;1999.90;999.90;;;;;;;-4.27;31.76;101924.22;5007745;27;97754;-69
2022/03/12 05:37:56;;;;;;;1999.90;999.90;;;;;;;-4.28;31.74;101928.47;5016468;27;99135;-69
2022/03/12 05:40:26;;;;;;;1999.90;999.90;;;;;;;-4.28;31.73;101931.09;5019478;27;97686;-69
2022/03/12 05:42:59;;;;;;;1999.90;999.90;;;;;;;-4.28;31.93;101940.59;4990629;28;97922;-69
2022/03/12 05:45:28;;;;;;;1999.90;999.90;;;;;;;-4.33;31.59;101934.91;5017957;27;97359;-69
2022/03/12 05:47:57;;;;;;;1999.90;999.90;;;;;;;-4.31;31.61;101951.59;5004331;27;97873;-69
2022/03/12 05:50:25;;;;;;;1999.90;999.90;;;;;;;-4.30;31.81;101949.91;5014804;28;98713;-70
2022/03/12 05:52:53;;;;;;;1999.90;999.90;;;;;;;-4.32;31.85;101949.75;5018261;28;96975;-70
2022/03/12 05:55:22;;;;;;;1999.90;999.90;;;;;;;-4.28;31.77;101953.56;5020930;28;97006;-70
2022/03/12 05:57:51;;;;;;;1999.90;999.90;;;;;;;-4.29;31.86;101957.84;5011887;27;100582;-69
2022/03/12 06:00:19;;;;;;;1999.90;999.90;;;;;;;-4.28;31.72;101956.19;5020052;28;98506;-69
2022/03/12 06:02:52;;;;;;;1999.90;999.90;;;;;;;-4.29;32.22;101963.03;5004553;27;97581;-70
2022/03/12 06:05:24;;;;;;;1999.90;999.90;;;;;;;-4.26;31.86;101959.84;5014283;27;97906;-70
2022/03/12 06:07:52;;;;;;;1999.90;999.90;;;;;;;-4.23;31.91;101967.94;5020794;28;97963;-70
2022/03/12 06:10:23;;;;;;;1999.90;999.90;;;;;;;-4.20;31.73;101968.22;5008696;28;98819;-70
2022/03/12 06:12:53;;;;;;;1999.90;999.90;;;;;;;-4.16;31.81;101966.09;5013983;27;97372;-70
2022/03/12 06:15:25;;;;;;;1999.90;999.90;;;;;;;-4.11;31.94;101970.03;5031792;27;96783;-69
2022/03/12 06:17:55;;;;;;;1999.90;999.90;;;;;;;-4.09;31.81;101965.91;5000348;28;98874;-70
2022/03/12 06:20:24;;;;;;;1999.90;999.90;;;;;;;-4.05;31.93;101968.06;4999652;28;99940;-70
2022/03/12 06:22:52;;;;;;;1999.90;999.90;;;;;;;-4.00;31.79;101973.69;5005699;27;98216;-69
2022/03/12 06:25:21;;;;;;;1999.90;999.90;;;;;;;-3.94;31.89;101980.41;5010633;27;96883;-70
2022/03/12 06:27:54;;;;;;;1999.90;999.90;;;;;;;-3.89;31.52;101979.19;5005864;28;97070;-69
2022/03/12 06:30:24;;;;;;;1999.90;999.90;;;;;;;-3.85;31.69;101980.38;5016872;27;99577;-70
2022/03/12 06:32:55;;;;;;;1999.90;999.90;;;;;;;-3.81;31.72;101985.13;5006894;27;98285;-70
2022/03/12 06:35:24;;;;;;;1999.90;999.90;;;;;;;-3.77;31.56;101975.94;5014492;27;97593;-70
2022/03/12 06:37:52;;;;;;;1999.90;999.90;;;;;;;-3.72;31.53;101972.09;5008052;27;97589;-70
2022/03/12 06:40:21;;;;;;;1999.90;999.90;;;;;;;-3.69;31.82;101973.28;5018357;27;97711;-69
2022/03/12 06:42:51;;;;;;;1999.90;999.90;;;;;;;-3.63;31.67;101983.38;4997774;28;97020;-69
2022/03/12 06:45:19;;;;;;;1999.90;999.90;;;;;;;-3.61;31.56;101971.44;5014884;27;99216;-70
2022/03/12 06:47:47;;;;;;;1999.90;999.90;;;;;;;-3.59;31.60;101969.91;5017104;27;97792;-70
2022/03/12 06:50:18;;;;;;;1999.90;999.90;;;;;;;-3.55;31.45;101975.56;4971780;28;98524;-69
2022/03/12 06:52:48;;;;;;;1999.90;999.90;;;;;;;-3.51;31.55;101968.97;5002163;28;98733;-69
2022/03/12 06:55:32;;;;;;;1999.90;999.90;;;;;;;-3.49;31.42;101965.72;5010247;27;96868;-70
2022/03/12 06:58:15;;;;;;;1999.90;999.90;;;;;;;-3.44;31.52;101971.38;5018681;27;97734;-69
2022/03/12 07:00:58;;;;;;;1999.90;999.90;;;;;;;-3.41;31.23;101971.66;5007118;28;97630;-69
2022/03/12 07:03:41;;;;;;;1999.90;999.90;;;;;;;-3.37;31.65;101974.72;5014687;27;97853;-69
2022/03/12 07:06:10;;;;;;;1999.90;999.90;;;;;;;-3.32;31.29;101981.25;5013099;27;97710;-69
2022/03/12 07:08:38;;;;;;;1999.90;999.90;;;;;;;-3.28;31.16;101985.06;5014047;27;97635;-69
2022/03/12 07:11:10;;;;;;;1999.90;999.90;;;;;;;-3.25;31.19;101987.94;5018160;28;97941;-69
2022/03/12 07:13:38;;;;;;;1999.90;999.90;;;;;;;-3.21;31.42;101984.88;5017468;27;96895;-69
2022/03/12 07:16:06;;;;;;;1999.90;999.90;;;;;;;-3.19;31.51;101986.88;4980789;28;97140;-70
2022/03/12 07:18:34;;;;;;;1999.90;999.90;;;;;;;-3.13;30.97;101997.84;5000345;28;99303;-70
2022/03/12 07:21:01;;;;;;;1999.90;999.90;;;;;;;-3.08;30.82;101985.28;5016256;27;96829;-69
2022/03/12 07:23:30;;;;;;;1999.90;999.90;;;;;;;-3.04;30.89;101992.59;5017127;27;97151;-70
2022/03/12 07:25:58;;;;;;;1999.90;999.90;;;;;;;-2.98;31.29;102000.97;5015084;27;97282;-70
2022/03/12 07:28:28;;;;;;;1999.90;999.90;;;;;;;-2.93;31.14;102000.63;5017253;28;100030;-69
2022/03/12 07:30:56;;;;;;;1999.90;999.90;;;;;;;-2.89;30.70;102004.44;5000496;28;99840;-69
2022/03/12 07:33:23;;;;;;;1999.90;999.90;;;;;;;-2.83;31.08;101997.22;5015445;28;98434;-70
2022/03/12 07:35:52;;;;;;;1999.90;999.90;;;;;;;-2.75;30.50;102003.13;4999299;27;98383;-69
2022/03/12 07:38:20;;;;;;;1999.90;999.90;;;;;;;-2.67;31.15;102002.19;5013336;28;98854;-70
2022/03/12 07:40:49;;;;;;;1999.90;999.90;;;;;;;-2.61;31.12;102003.66;4995728;28;97505;-70
2022/03/12 07:43:17;;;;;;;1999.90;999.90;;;;;;;-2.53;30.82;102002.69;4995973;28;96746;-69
2022/03/12 07:45:46;;;;;;;1999.90;999.90;;;;;;;-2.46;30.61;102004.16;4993411;28;97238;-70
2022/03/12 07:48:14;;;;;;;1999.90;999.90;;;;;;;-2.42;30.28;102012.41;5008694;28;98842;-69
2022/03/12 07:51:02;;;;;;;1999.90;999.90;;;;;;;-2.34;30.76;102014.00;5012753;27;97372;-69
2022/03/12 07:53:30;;;;;;;1999.90;999.90;;;;;;;-2.30;30.38;102007.38;5018584;27;97680;-69
2022/03/12 07:55:59;;;;;;;1999.90;999.90;;;;;;;-2.24;30.17;102008.88;5014549;27;97303;-69
2022/03/12 07:58:28;;;;;;;1999.90;999.90;;;;;;;-2.19;30.47;102020.63;5020027;28;98875;-72
2022/03/12 08:00:56;;;;;;;1999.90;999.90;;;;;;;-2.13;30.24;102018.63;5020857;27;98806;-69
2022/03/12 08:03:24;;;;;;;1999.90;999.90;;;;;;;-2.07;30.16;102016.56;5003011;27;96880;-70
2022/03/12 08:05:54;;;;;;;1999.90;999.90;;;;;;;-2.00;30.40;102015.44;5013467;27;96884;-68
2022/03/12 08:08:21;;;;;;;1999.90;999.90;;;;;;;-1.93;30.40;102028.25;5036603;27;100759;-70
2022/03/12 08:13:37;;;;;;;1999.90;999.90;;;;;;;-1.77;29.29;102023.63;5005717;28;96798;-70
2022/03/12 08:16:05;;;;;;;1999.90;999.90;;;;;;;-1.70;29.55;102019.88;5019475;27;96796;-69
2022/03/12 08:18:34;;;;;;;1999.90;999.90;;;;;;;-1.63;30.01;102019.66;5011527;27;99492;-70
2022/03/12 08:21:02;;;;;;;1999.90;999.90;;;;;;;-1.57;30.02;102020.19;5010579;27;98554;-71
2022/03/12 08:23:31;;;;;;;1999.90;999.90;;;;;;;-1.49;29.34;102008.75;5012902;28;96968;-70
2022/03/12 08:25:59;;;;;;;1999.90;999.90;;;;;;;-1.46;29.32;102011.63;5020214;27;97976;-70
2022/03/12 08:28:28;;;;;;;1999.90;999.90;;;;;;;-1.39;29.04;102003.53;5004102;28;97857;-70
2022/03/12 08:30:57;;;;;;;1999.90;999.90;;;;;;;-1.34;28.90;102004.88;5026132;27;99802;-70
2022/03/12 08:33:25;;;;;;;1999.90;999.90;;;;;;;-1.31;29.54;102012.97;5026933;27;97540;-70
2022/03/12 08:35:53;;;;;;;1999.90;999.90;;;;;;;-1.24;29.64;102004.91;5006221;27;97764;-70
2022/03/12 08:38:20;;;;;;;1999.90;999.90;;;;;;;-1.17;29.10;101999.41;5005167;27;99434;-71
2022/03/12 08:40:48;;;;;;;1999.90;999.90;;;;;;;-1.10;28.66;102001.78;5011837;27;99126;-70
2022/03/12 08:43:16;;;;;;;1999.90;999.90;;;;;;;-1.04;28.84;101997.09;5003380;27;97475;-72
2022/03/12 08:45:44;;;;;;;1999.90;999.90;;;;;;;-0.96;28.85;102001.31;5002400;27;96981;-69
2022/03/12 08:48:13;;;;;;;1999.90;999.90;;;;;;;-0.91;28.66;101989.53;5022364;27;97677;-70
2022/03/12 08:50:42;;;;;;;1999.90;999.90;;;;;;;-0.84;29.10;101997.13;5007618;27;99617;-69
2022/03/12 08:53:10;;;;;;;1999.90;999.90;;;;;;;-0.76;29.00;101988.25;5020274;27;98134;-70
2022/03/12 08:55:38;;;;;;;1999.90;999.90;;;;;;;-0.69;29.19;101976.59;5011743;27;98773;-70
2022/03/12 08:58:07;;;;;;;1999.90;999.90;;;;;;;-0.61;29.19;101979.06;5010450;27;99119;-69
2022/03/12 09:00:36;;;;;;;1999.90;999.90;;;;;;;-0.53;28.66;101971.88;5000934;28;98930;-70
2022/03/12 09:03:05;;;;;;;1999.90;999.90;;;;;;;-0.44;28.81;101975.25;4995317;27;97277;-69
2022/03/12 09:05:34;;;;;;;1999.90;999.90;;;;;;;-0.39;28.37;101979.22;4990966;28;97761;-69
2022/03/12 09:08:03;;;;;;;1999.90;999.90;;;;;;;-0.31;28.58;101970.28;5002503;27;98962;-69
2022/03/12 09:10:32;;;;;;;1999.90;999.90;;;;;;;-0.23;28.38;101979.69;5003916;27;98800;-70
2022/03/12 09:13:00;;;;;;;1999.90;999.90;;;;;;;-0.19;28.48;101974.81;5003953;27;97814;-70
2022/03/12 09:15:28;;;;;;;1999.90;999.90;;;;;;;-0.12;28.00;101976.25;5010063;27;97343;-69
2022/03/12 09:17:55;;;;;;;1999.90;999.90;;;;;;;-0.07;28.42;101975.84;4994159;28;98022;-69
2022/03/12 09:20:25;;;;;;;1999.90;999.90;;;;;;;-0.03;27.76;101964.81;5019091;27;98508;-70
2022/03/12 09:22:55;;;;;;;1999.90;999.90;;;;;;;0.04;27.84;101969.81;5015818;27;97275;-69
2022/03/12 09:25:22;;;;;;;1999.90;999.90;;;;;;;0.11;27.91;101965.97;5006375;27;97421;-70
2022/03/12 09:27:50;;;;;;;1999.90;999.90;;;;;;;0.18;27.79;101966.59;5012542;27;96899;-71
2022/03/12 09:30:22;;;;;;;1999.90;999.90;;;;;;;0.25;27.66;101967.16;5012457;27;99257;-70
2022/03/12 09:32:50;;;;;;;1999.90;999.90;;;;;;;0.31;27.83;101965.00;4987625;28;98469;-70
2022/03/12 09:35:19;;;;;;;1999.90;999.90;;;;;;;0.38;27.49;101969.94;5015190;27;98430;-70
2022/03/12 09:37:47;;;;;;;1999.90;999.90;;;;;;;0.44;27.58;101966.13;4985142;28;98186;-70
2022/03/12 09:40:16;;;;;;;1999.90;999.90;;;;;;;0.49;27.34;101961.25;5007417;27;98949;-70
2022/03/12 09:42:44;;;;;;;1999.90;999.90;;;;;;;0.55;27.25;101969.59;5008779;27;97826;-69
2022/03/12 09:45:13;;;;;;;1999.90;999.90;;;;;;;0.62;27.41;101967.59;5001032;27;99211;-69
2022/03/12 09:47:41;;;;;;;1999.90;999.90;;;;;;;0.71;27.23;101970.00;5000976;27;97815;-70
2022/03/12 09:50:10;;;;;;;1999.90;999.90;;;;;;;0.77;27.80;101974.06;4989214;28;99166;-70
2022/03/12 09:52:38;;;;;;;1999.90;999.90;;;;;;;0.83;27.24;101955.28;5007462;27;96984;-70
2022/03/12 09:55:06;;;;;;;1999.90;999.90;;;;;;;0.91;27.56;101959.41;5025350;27;97991;-70
2022/03/12 09:57:36;;;;;;;1999.90;999.90;;;;;;;0.97;27.46;101967.75;5015108;27;97025;-70
2022/03/12 10:00:06;;;;;;;1999.90;999.90;;;;;;;1.05;27.20;101954.44;4995350;27;100551;-72
2022/03/12 10:02:38;;;;;;;1999.90;999.90;;;;;;;1.13;27.49;101957.66;4996001;28;97200;-70
2022/03/12 10:05:06;;;;;;;1999.90;999.90;;;;;;;1.19;26.93;101945.03;5007198;27;97221;-69
2022/03/12 10:07:34;;;;;;;1999.90;999.90;;;;;;;1.27;26.94;101937.75;5014471;27;97776;-70
2022/03/12 10:10:02;;;;;;;1999.90;999.90;;;;;;;1.32;26.98;101929.44;5010878;27;97585;-70
2022/03/12 10:12:31;;;;;;;1999.90;999.90;;;;;;;1.40;26.54;101935.28;5013487;27;98323;-70
2022/03/12 10:15:00;;;;;;;1999.90;999.90;;;;;;;1.44;26.10;101930.38;5013302;27;97064;-70
2022/03/12 10:17:29;;;;;;;1999.90;999.90;;;;;;;1.52;26.91;101933.56;5008035;27;97510;-70
2022/03/12 10:19:56;;;;;;;1999.90;999.90;;;;;;;1.56;26.48;101931.28;5009864;27;97827;-70
2022/03/12 10:22:24;;;;;;;1999.90;999.90;;;;;;;1.60;26.33;101930.72;5015167;27;96938;-70
2022/03/12 10:24:52;;;;;;;1999.90;999.90;;;;;;;1.67;26.98;101934.75;5008241;28;97118;-70
2022/03/12 10:27:20;;;;;;;1999.90;999.90;;;;;;;1.74;26.55;101937.00;5009517;27;98626;-70
2022/03/12 10:29:48;;;;;;;1999.90;999.90;;;;;;;1.80;26.32;101927.88;4984132;28;99641;-70
2022/03/12 10:32:24;;;;;;;1999.90;999.90;;;;;;;1.85;26.19;101926.50;5006218;27;100800;-70
2022/03/12 10:34:54;;;;;;;1999.90;999.90;;;;;;;1.93;26.45;101930.63;5010893;27;97354;-70
2022/03/12 10:37:23;;;;;;;1999.90;999.90;;;;;;;1.99;26.10;101919.66;4989160;27;99773;-71
2022/03/12 10:40:06;;;;;;;1999.90;999.90;;;;;;;2.03;25.26;101920.00;5014644;27;97664;-70
2022/03/12 10:42:34;;;;;;;1999.90;999.90;;;;;;;2.10;26.19;101917.06;5006772;27;98496;-70
2022/03/12 10:45:10;;;;;;;1999.90;999.90;;;;;;;2.13;25.55;101912.03;5016364;28;97328;-71
2022/03/12 10:47:45;;;;;;;1999.90;999.90;;;;;;;2.19;25.69;101911.56;5016963;27;97904;-71
2022/03/12 10:50:16;;;;;;;1999.90;999.90;;;;;;;2.26;26.01;101905.00;4988757;27;101029;-71
2022/03/12 10:52:47;;;;;;;1999.90;999.90;;;;;;;2.31;26.66;101904.53;5006980;27;97259;-70
2022/03/12 10:55:23;;;;;;;1999.90;999.90;;;;;;;2.37;25.14;101893.56;5025244;27;96912;-71
2022/03/12 10:57:57;;;;;;;1999.90;999.90;;;;;;;2.43;26.23;101896.66;5003775;27;98012;-71
2022/03/12 11:00:25;;;;;;;1999.90;999.90;;;;;;;2.47;25.83;101893.44;5006054;27;97747;-70